sensor_id;sensor_type;location;lat;lon;timestamp;temperature;humidity
21306;DHT22;10812;51.838;5.838;2022-09-14T00:05:24;16.80;99.90
21306;DHT22;10812;51.838;5.838;2022-09-14T00:07:52;16.80;99.90
21306;DHT22;10812;51.838;5.838;2022-09-14T00:10:20;16.80;99.90
21306;DHT22;10812;51.838;5.838;2022-09-14T00:12:49;16.80;99.90
21306;DHT22;10812;51.838;5.838;2022-09-14T00:15:18;16.70;99.90
21306;DHT22;10812;51.838;5.838;2022-09-14T00:17:46;16.80;99.90
21306;DHT22;10812;51.838;5.838;2022-09-14T00:20:14;16.80;99.90
21306;DHT22;10812;51.838;5.838;2022-09-14T00:22:42;16.80;99.90
21306;DHT22;10812;51.838;5.838;2022-09-14T00:25:10;16.80;99.90
21306;DHT22;10812;51.838;5.838;2022-09-14T00:27:39;16.80;99.90
21306;DHT22;10812;51.838;5.838;2022-09-14T00:30:07;16.70;99.90
21306;DHT22;10812;51.838;5.838;2022-09-14T00:32:37;16.70;99.90
21306;DHT22;10812;51.838;5.838;2022-09-14T00:35:06;16.70;99.90
21306;DHT22;10812;51.838;5.838;2022-09-14T00:37:34;16.70;99.90
21306;DHT22;10812;51.838;5.838;2022-09-14T00:40:03;16.70;99.90
21306;DHT22;10812;51.838;5.838;2022-09-14T00:42:31;16.70;99.90
21306;DHT22;10812;51.838;5.838;2022-09-14T00:45:04;16.70;99.90
21306;DHT22;10812;51.838;5.838;2022-09-14T00:47:34;16.70;99.90
21306;DHT22;10812;51.838;5.838;2022-09-14T00:50:04;16.70;99.90
21306;DHT22;10812;51.838;5.838;2022-09-14T00:52:34;16.70;99.90
21306;DHT22;10812;51.838;5.838;2022-09-14T00:55:06;16.70;99.90
21306;DHT22;10812;51.838;5.838;2022-09-14T00:57:36;16.60;99.90
21306;DHT22;10812;51.838;5.838;2022-09-14T01:00:08;16.70;99.90
21306;DHT22;10812;51.838;5.838;2022-09-14T01:02:37;16.70;99.90
21306;DHT22;10812;51.838;5.838;2022-09-14T01:05:08;16.70;99.90
21306;DHT22;10812;51.838;5.838;2022-09-14T01:07:51;16.70;99.90
21306;DHT22;10812;51.838;5.838;2022-09-14T01:10:30;16.60;99.90
21306;DHT22;10812;51.838;5.838;2022-09-14T01:13:23;16.60;99.90
21306;DHT22;10812;51.838;5.838;2022-09-14T01:16:00;16.60;99.90
21306;DHT22;10812;51.838;5.838;2022-09-14T01:18:35;16.70;99.90
21306;DHT22;10812;51.838;5.838;2022-09-14T01:21:10;16.60;99.90
21306;DHT22;10812;51.838;5.838;2022-09-14T01:23:46;16.60;99.90
21306;DHT22;10812;51.838;5.838;2022-09-14T01:26:47;16.60;99.90
21306;DHT22;10812;51.838;5.838;2022-09-14T01:29:25;16.70;99.90
21306;DHT22;10812;51.838;5.838;2022-09-14T01:31:59;16.60;99.90
21306;DHT22;10812;51.838;5.838;2022-09-14T01:34:32;16.60;99.90
21306;DHT22;10812;51.838;5.838;2022-09-14T01:37:04;16.60;99.90
21306;DHT22;10812;51.838;5.838;2022-09-14T01:39:43;16.50;99.90
21306;DHT22;10812;51.838;5.838;2022-09-14T01:42:13;16.50;99.90
21306;DHT22;10812;51.838;5.838;2022-09-14T01:44:47;16.50;99.90
21306;DHT22;10812;51.838;5.838;2022-09-14T01:47:22;16.50;99.90
21306;DHT22;10812;51.838;5.838;2022-09-14T01:49:56;16.50;99.90
21306;DHT22;10812;51.838;5.838;2022-09-14T01:52:29;16.50;99.90
21306;DHT22;10812;51.838;5.838;2022-09-14T01:55:02;16.50;99.90
21306;DHT22;10812;51.838;5.838;2022-09-14T01:57:35;16.40;99.90
21306;DHT22;10812;51.838;5.838;2022-09-14T02:00:10;16.40;99.90
21306;DHT22;10812;51.838;5.838;2022-09-14T02:02:41;16.40;99.90
21306;DHT22;10812;51.838;5.838;2022-09-14T02:05:17;16.30;99.90
21306;DHT22;10812;51.838;5.838;2022-09-14T02:07:47;16.30;99.90
21306;DHT22;10812;51.838;5.838;2022-09-14T02:10:15;16.30;99.90
21306;DHT22;10812;51.838;5.838;2022-09-14T02:12:44;16.20;99.90
21306;DHT22;10812;51.838;5.838;2022-09-14T02:15:14;16.20;99.90
21306;DHT22;10812;51.838;5.838;2022-09-14T02:17:43;16.10;99.90
21306;DHT22;10812;51.838;5.838;2022-09-14T02:20:14;16.00;99.90
21306;DHT22;10812;51.838;5.838;2022-09-14T02:22:44;15.90;99.90
21306;DHT22;10812;51.838;5.838;2022-09-14T02:25:12;15.80;99.90
21306;DHT22;10812;51.838;5.838;2022-09-14T02:27:40;15.80;99.90
21306;DHT22;10812;51.838;5.838;2022-09-14T02:30:09;15.70;99.90
21306;DHT22;10812;51.838;5.838;2022-09-14T02:32:43;15.60;99.90
21306;DHT22;10812;51.838;5.838;2022-09-14T02:35:19;15.50;99.90
21306;DHT22;10812;51.838;5.838;2022-09-14T02:37:56;15.50;99.90
21306;DHT22;10812;51.838;5.838;2022-09-14T02:40:32;15.40;99.90
21306;DHT22;10812;51.838;5.838;2022-09-14T02:43:12;15.40;99.90
21306;DHT22;10812;51.838;5.838;2022-09-14T02:45:46;15.40;99.90
21306;DHT22;10812;51.838;5.838;2022-09-14T02:48:23;15.40;99.90
21306;DHT22;10812;51.838;5.838;2022-09-14T02:50:58;15.40;99.90
21306;DHT22;10812;51.838;5.838;2022-09-14T02:53:35;15.40;99.90
21306;DHT22;10812;51.838;5.838;2022-09-14T02:56:05;15.30;99.90
21306;DHT22;10812;51.838;5.838;2022-09-14T02:58:35;15.30;99.90
21306;DHT22;10812;51.838;5.838;2022-09-14T03:06:26;15.10;99.90
21306;DHT22;10812;51.838;5.838;2022-09-14T03:08:54;15.10;99.90
21306;DHT22;10812;51.838;5.838;2022-09-14T03:11:22;15.10;99.90
21306;DHT22;10812;51.838;5.838;2022-09-14T03:13:50;15.00;99.90
21306;DHT22;10812;51.838;5.838;2022-09-14T03:16:19;14.90;99.90
21306;DHT22;10812;51.838;5.838;2022-09-14T03:18:47;14.90;99.90
21306;DHT22;10812;51.838;5.838;2022-09-14T03:21:16;14.90;99.90
21306;DHT22;10812;51.838;5.838;2022-09-14T03:23:50;14.80;99.90
21306;DHT22;10812;51.838;5.838;2022-09-14T03:26:19;14.80;99.90
21306;DHT22;10812;51.838;5.838;2022-09-14T03:28:49;14.90;99.90
21306;DHT22;10812;51.838;5.838;2022-09-14T03:31:18;14.90;99.90
21306;DHT22;10812;51.838;5.838;2022-09-14T03:33:46;14.90;99.90
21306;DHT22;10812;51.838;5.838;2022-09-14T03:36:16;14.90;99.90
21306;DHT22;10812;51.838;5.838;2022-09-14T03:38:47;14.90;99.90
21306;DHT22;10812;51.838;5.838;2022-09-14T03:41:16;14.90;99.90
21306;DHT22;10812;51.838;5.838;2022-09-14T03:43:44;14.80;99.90
21306;DHT22;10812;51.838;5.838;2022-09-14T03:46:14;14.80;99.90
21306;DHT22;10812;51.838;5.838;2022-09-14T03:48:43;14.80;99.90
21306;DHT22;10812;51.838;5.838;2022-09-14T03:51:12;14.80;99.90
21306;DHT22;10812;51.838;5.838;2022-09-14T03:53:41;14.80;99.90
21306;DHT22;10812;51.838;5.838;2022-09-14T03:56:12;14.80;99.90
21306;DHT22;10812;51.838;5.838;2022-09-14T03:58:42;14.80;99.90
21306;DHT22;10812;51.838;5.838;2022-09-14T04:01:11;14.70;99.90
21306;DHT22;10812;51.838;5.838;2022-09-14T04:03:40;14.70;99.90
21306;DHT22;10812;51.838;5.838;2022-09-14T04:06:09;14.70;99.90
21306;DHT22;10812;51.838;5.838;2022-09-14T04:08:38;14.70;99.90
21306;DHT22;10812;51.838;5.838;2022-09-14T04:11:09;14.70;99.90
21306;DHT22;10812;51.838;5.838;2022-09-14T04:13:38;14.70;99.90
21306;DHT22;10812;51.838;5.838;2022-09-14T04:16:07;14.70;99.90
21306;DHT22;10812;51.838;5.838;2022-09-14T04:18:35;14.60;99.90
21306;DHT22;10812;51.838;5.838;2022-09-14T04:21:06;14.60;99.90
21306;DHT22;10812;51.838;5.838;2022-09-14T04:23:35;14.60;99.90
21306;DHT22;10812;51.838;5.838;2022-09-14T04:26:25;14.50;99.90
21306;DHT22;10812;51.838;5.838;2022-09-14T04:28:55;14.60;99.90
21306;DHT22;10812;51.838;5.838;2022-09-14T04:31:24;14.60;99.90
21306;DHT22;10812;51.838;5.838;2022-09-14T04:33:54;14.60;99.90
21306;DHT22;10812;51.838;5.838;2022-09-14T04:36:24;14.60;99.90
21306;DHT22;10812;51.838;5.838;2022-09-14T04:38:56;14.70;99.90
21306;DHT22;10812;51.838;5.838;2022-09-14T04:41:25;14.80;99.90
21306;DHT22;10812;51.838;5.838;2022-09-14T04:43:55;14.80;99.90
21306;DHT22;10812;51.838;5.838;2022-09-14T04:46:25;14.70;99.90
21306;DHT22;10812;51.838;5.838;2022-09-14T04:48:53;14.80;99.90
21306;DHT22;10812;51.838;5.838;2022-09-14T04:51:24;14.90;99.90
21306;DHT22;10812;51.838;5.838;2022-09-14T04:53:54;14.90;99.90
21306;DHT22;10812;51.838;5.838;2022-09-14T04:56:24;14.80;99.90
21306;DHT22;10812;51.838;5.838;2022-09-14T04:58:54;14.70;99.90
21306;DHT22;10812;51.838;5.838;2022-09-14T05:01:26;14.70;99.90
21306;DHT22;10812;51.838;5.838;2022-09-14T05:03:55;14.80;99.90
21306;DHT22;10812;51.838;5.838;2022-09-14T05:06:25;14.80;99.90
21306;DHT22;10812;51.838;5.838;2022-09-14T05:08:55;14.70;99.90
21306;DHT22;10812;51.838;5.838;2022-09-14T05:11:24;14.70;99.90
21306;DHT22;10812;51.838;5.838;2022-09-14T05:13:54;14.70;99.90
21306;DHT22;10812;51.838;5.838;2022-09-14T05:16:25;14.70;99.90
21306;DHT22;10812;51.838;5.838;2022-09-14T05:18:55;14.70;99.90
21306;DHT22;10812;51.838;5.838;2022-09-14T05:21:24;14.70;99.90
21306;DHT22;10812;51.838;5.838;2022-09-14T05:23:53;14.70;99.90
21306;DHT22;10812;51.838;5.838;2022-09-14T05:26:22;14.70;99.90
21306;DHT22;10812;51.838;5.838;2022-09-14T05:28:52;14.70;99.90
21306;DHT22;10812;51.838;5.838;2022-09-14T05:31:21;14.70;99.90
21306;DHT22;10812;51.838;5.838;2022-09-14T05:33:51;14.70;99.90
21306;DHT22;10812;51.838;5.838;2022-09-14T05:36:19;14.60;99.90
21306;DHT22;10812;51.838;5.838;2022-09-14T05:38:47;14.60;99.90
21306;DHT22;10812;51.838;5.838;2022-09-14T05:41:16;14.70;99.90
21306;DHT22;10812;51.838;5.838;2022-09-14T05:43:44;14.60;99.90
21306;DHT22;10812;51.838;5.838;2022-09-14T05:46:14;14.70;99.90
21306;DHT22;10812;51.838;5.838;2022-09-14T05:48:42;14.70;99.90
21306;DHT22;10812;51.838;5.838;2022-09-14T05:51:13;14.70;99.90
21306;DHT22;10812;51.838;5.838;2022-09-14T05:53:45;14.80;99.90
21306;DHT22;10812;51.838;5.838;2022-09-14T05:56:14;14.80;99.90
21306;DHT22;10812;51.838;5.838;2022-09-14T05:58:42;15.00;99.90
21306;DHT22;10812;51.838;5.838;2022-09-14T06:01:13;15.00;99.90
21306;DHT22;10812;51.838;5.838;2022-09-14T06:03:41;15.00;99.90
21306;DHT22;10812;51.838;5.838;2022-09-14T06:06:13;15.00;99.90
21306;DHT22;10812;51.838;5.838;2022-09-14T06:08:42;15.00;99.90
21306;DHT22;10812;51.838;5.838;2022-09-14T06:11:12;14.90;99.90
21306;DHT22;10812;51.838;5.838;2022-09-14T06:13:40;15.00;99.90
21306;DHT22;10812;51.838;5.838;2022-09-14T06:16:10;15.10;99.90
21306;DHT22;10812;51.838;5.838;2022-09-14T06:29:45;15.00;99.90
21306;DHT22;10812;51.838;5.838;2022-09-14T06:32:17;15.00;99.90
21306;DHT22;10812;51.838;5.838;2022-09-14T06:34:45;15.00;99.90
21306;DHT22;10812;51.838;5.838;2022-09-14T06:37:13;14.90;99.90
21306;DHT22;10812;51.838;5.838;2022-09-14T06:39:41;14.90;99.90
21306;DHT22;10812;51.838;5.838;2022-09-14T06:42:10;14.90;99.90
21306;DHT22;10812;51.838;5.838;2022-09-14T06:44:38;15.00;99.90
21306;DHT22;10812;51.838;5.838;2022-09-14T06:47:07;15.00;99.90
21306;DHT22;10812;51.838;5.838;2022-09-14T06:49:35;14.90;99.90
21306;DHT22;10812;51.838;5.838;2022-09-14T06:52:03;14.90;99.90
21306;DHT22;10812;51.838;5.838;2022-09-14T06:54:31;14.90;99.90
21306;DHT22;10812;51.838;5.838;2022-09-14T06:56:59;14.80;99.90
21306;DHT22;10812;51.838;5.838;2022-09-14T06:59:27;14.80;99.90
21306;DHT22;10812;51.838;5.838;2022-09-14T07:01:55;14.70;99.90
21306;DHT22;10812;51.838;5.838;2022-09-14T07:04:25;14.70;99.90
21306;DHT22;10812;51.838;5.838;2022-09-14T07:06:53;14.70;99.90
21306;DHT22;10812;51.838;5.838;2022-09-14T07:09:21;14.70;99.90
21306;DHT22;10812;51.838;5.838;2022-09-14T07:11:49;14.70;99.90
21306;DHT22;10812;51.838;5.838;2022-09-14T07:14:17;14.70;99.90
21306;DHT22;10812;51.838;5.838;2022-09-14T07:16:46;14.80;99.90
21306;DHT22;10812;51.838;5.838;2022-09-14T07:19:15;14.70;99.90
21306;DHT22;10812;51.838;5.838;2022-09-14T07:21:44;14.80;99.90
21306;DHT22;10812;51.838;5.838;2022-09-14T07:24:13;14.90;99.90
21306;DHT22;10812;51.838;5.838;2022-09-14T07:26:41;15.00;99.90
21306;DHT22;10812;51.838;5.838;2022-09-14T07:29:11;15.10;99.90
21306;DHT22;10812;51.838;5.838;2022-09-14T07:31:42;15.10;99.90
21306;DHT22;10812;51.838;5.838;2022-09-14T07:34:11;15.00;99.90
21306;DHT22;10812;51.838;5.838;2022-09-14T07:36:40;14.90;99.90
21306;DHT22;10812;51.838;5.838;2022-09-14T07:39:11;15.00;99.90
21306;DHT22;10812;51.838;5.838;2022-09-14T07:41:40;14.90;99.90
21306;DHT22;10812;51.838;5.838;2022-09-14T07:44:11;14.80;99.90
21306;DHT22;10812;51.838;5.838;2022-09-14T07:46:41;14.90;99.90
21306;DHT22;10812;51.838;5.838;2022-09-14T07:49:11;14.80;99.90
21306;DHT22;10812;51.838;5.838;2022-09-14T07:51:39;14.80;99.90
21306;DHT22;10812;51.838;5.838;2022-09-14T07:54:11;14.80;99.90
21306;DHT22;10812;51.838;5.838;2022-09-14T07:56:40;14.80;99.90
21306;DHT22;10812;51.838;5.838;2022-09-14T07:59:10;14.80;99.90
21306;DHT22;10812;51.838;5.838;2022-09-14T08:01:58;14.80;99.90
21306;DHT22;10812;51.838;5.838;2022-09-14T08:04:26;14.80;99.90
21306;DHT22;10812;51.838;5.838;2022-09-14T08:06:54;14.80;99.90
21306;DHT22;10812;51.838;5.838;2022-09-14T08:09:23;14.90;99.90
21306;DHT22;10812;51.838;5.838;2022-09-14T08:11:52;14.90;99.90
21306;DHT22;10812;51.838;5.838;2022-09-14T08:14:20;14.90;99.90
21306;DHT22;10812;51.838;5.838;2022-09-14T08:16:48;14.90;99.90
21306;DHT22;10812;51.838;5.838;2022-09-14T08:19:17;14.90;99.90
21306;DHT22;10812;51.838;5.838;2022-09-14T08:21:46;15.00;99.90
21306;DHT22;10812;51.838;5.838;2022-09-14T08:24:16;14.90;99.90
21306;DHT22;10812;51.838;5.838;2022-09-14T08:26:46;14.80;99.90
21306;DHT22;10812;51.838;5.838;2022-09-14T08:29:15;14.80;99.90
21306;DHT22;10812;51.838;5.838;2022-09-14T08:31:44;14.90;99.90
21306;DHT22;10812;51.838;5.838;2022-09-14T08:34:13;14.90;99.90
21306;DHT22;10812;51.838;5.838;2022-09-14T08:36:43;15.00;99.90
21306;DHT22;10812;51.838;5.838;2022-09-14T08:39:13;15.00;99.90
21306;DHT22;10812;51.838;5.838;2022-09-14T08:41:51;15.00;99.90
21306;DHT22;10812;51.838;5.838;2022-09-14T08:44:23;15.00;99.90
21306;DHT22;10812;51.838;5.838;2022-09-14T08:46:58;15.00;99.90
21306;DHT22;10812;51.838;5.838;2022-09-14T08:49:38;15.10;99.90
21306;DHT22;10812;51.838;5.838;2022-09-14T08:52:12;15.20;99.90
21306;DHT22;10812;51.838;5.838;2022-09-14T08:54:50;15.10;99.90
21306;DHT22;10812;51.838;5.838;2022-09-14T08:57:28;15.10;99.90
21306;DHT22;10812;51.838;5.838;2022-09-14T09:00:07;15.00;99.90
21306;DHT22;10812;51.838;5.838;2022-09-14T09:02:54;15.00;99.90
21306;DHT22;10812;51.838;5.838;2022-09-14T09:05:33;15.00;99.90
21306;DHT22;10812;51.838;5.838;2022-09-14T09:08:11;15.10;99.90
21306;DHT22;10812;51.838;5.838;2022-09-14T09:10:41;15.20;99.90
21306;DHT22;10812;51.838;5.838;2022-09-14T09:13:14;15.30;99.90
21306;DHT22;10812;51.838;5.838;2022-09-14T09:15:47;15.40;99.90
21306;DHT22;10812;51.838;5.838;2022-09-14T09:18:19;15.30;99.90
21306;DHT22;10812;51.838;5.838;2022-09-14T09:20:51;15.50;99.90
21306;DHT22;10812;51.838;5.838;2022-09-14T09:23:22;15.40;99.90
21306;DHT22;10812;51.838;5.838;2022-09-14T09:25:54;15.50;99.90
21306;DHT22;10812;51.838;5.838;2022-09-14T09:28:26;15.50;99.90
21306;DHT22;10812;51.838;5.838;2022-09-14T09:30:57;15.50;99.90
21306;DHT22;10812;51.838;5.838;2022-09-14T09:33:27;15.50;99.90
21306;DHT22;10812;51.838;5.838;2022-09-14T09:35:55;15.60;99.90
21306;DHT22;10812;51.838;5.838;2022-09-14T09:38:25;15.70;99.90
21306;DHT22;10812;51.838;5.838;2022-09-14T09:40:57;15.60;99.90
21306;DHT22;10812;51.838;5.838;2022-09-14T09:43:27;15.50;99.90
21306;DHT22;10812;51.838;5.838;2022-09-14T09:46:14;15.50;99.90
21306;DHT22;10812;51.838;5.838;2022-09-14T09:48:44;15.50;99.90
21306;DHT22;10812;51.838;5.838;2022-09-14T09:51:15;15.50;99.90
21306;DHT22;10812;51.838;5.838;2022-09-14T09:53:51;15.50;99.90
21306;DHT22;10812;51.838;5.838;2022-09-14T09:56:23;15.40;99.90
21306;DHT22;10812;51.838;5.838;2022-09-14T09:58:53;15.40;99.90
21306;DHT22;10812;51.838;5.838;2022-09-14T10:01:26;15.40;99.90
21306;DHT22;10812;51.838;5.838;2022-09-14T10:04:04;15.40;99.90
21306;DHT22;10812;51.838;5.838;2022-09-14T10:06:41;15.40;99.90
21306;DHT22;10812;51.838;5.838;2022-09-14T10:09:14;15.40;99.90
21306;DHT22;10812;51.838;5.838;2022-09-14T10:11:44;15.50;99.90
21306;DHT22;10812;51.838;5.838;2022-09-14T10:14:22;15.50;99.90
21306;DHT22;10812;51.838;5.838;2022-09-14T10:16:51;15.40;99.90
21306;DHT22;10812;51.838;5.838;2022-09-14T10:19:21;15.30;99.90
21306;DHT22;10812;51.838;5.838;2022-09-14T10:22:16;15.50;99.90
21306;DHT22;10812;51.838;5.838;2022-09-14T10:24:54;15.50;99.90
21306;DHT22;10812;51.838;5.838;2022-09-14T10:27:38;15.40;99.90
21306;DHT22;10812;51.838;5.838;2022-09-14T10:30:16;15.50;99.90
21306;DHT22;10812;51.838;5.838;2022-09-14T10:32:48;15.60;99.90
21306;DHT22;10812;51.838;5.838;2022-09-14T10:35:19;15.60;99.90
21306;DHT22;10812;51.838;5.838;2022-09-14T10:38:05;15.70;99.90
21306;DHT22;10812;51.838;5.838;2022-09-14T10:40:37;15.70;99.90
21306;DHT22;10812;51.838;5.838;2022-09-14T10:43:13;15.80;99.90
21306;DHT22;10812;51.838;5.838;2022-09-14T10:45:48;15.80;99.90
21306;DHT22;10812;51.838;5.838;2022-09-14T10:48:45;15.80;99.90
21306;DHT22;10812;51.838;5.838;2022-09-14T10:51:37;15.80;99.90
21306;DHT22;10812;51.838;5.838;2022-09-14T10:54:20;15.70;99.90
21306;DHT22;10812;51.838;5.838;2022-09-14T10:57:03;15.70;99.90
21306;DHT22;10812;51.838;5.838;2022-09-14T10:59:39;15.70;99.90
21306;DHT22;10812;51.838;5.838;2022-09-14T11:02:47;15.70;99.90
21306;DHT22;10812;51.838;5.838;2022-09-14T11:05:21;15.60;99.90
21306;DHT22;10812;51.838;5.838;2022-09-14T11:07:57;15.60;99.90
21306;DHT22;10812;51.838;5.838;2022-09-14T11:10:31;15.50;99.90
21306;DHT22;10812;51.838;5.838;2022-09-14T11:13:33;15.60;99.90
21306;DHT22;10812;51.838;5.838;2022-09-14T11:16:12;15.60;99.90
21306;DHT22;10812;51.838;5.838;2022-09-14T11:18:52;15.60;99.90
21306;DHT22;10812;51.838;5.838;2022-09-14T11:21:30;15.60;99.90
21306;DHT22;10812;51.838;5.838;2022-09-14T11:24:04;15.80;99.90
21306;DHT22;10812;51.838;5.838;2022-09-14T11:26:36;15.80;99.90
21306;DHT22;10812;51.838;5.838;2022-09-14T11:29:17;15.90;99.90
21306;DHT22;10812;51.838;5.838;2022-09-14T11:31:51;15.90;99.90
21306;DHT22;10812;51.838;5.838;2022-09-14T11:34:44;15.90;99.90
21306;DHT22;10812;51.838;5.838;2022-09-14T11:37:16;16.00;99.90
21306;DHT22;10812;51.838;5.838;2022-09-14T11:39:47;16.00;99.90
21306;DHT22;10812;51.838;5.838;2022-09-14T11:42:21;16.10;99.90
21306;DHT22;10812;51.838;5.838;2022-09-14T11:44:54;16.10;99.90
21306;DHT22;10812;51.838;5.838;2022-09-14T11:47:25;16.10;99.90
21306;DHT22;10812;51.838;5.838;2022-09-14T11:49:59;16.10;99.90
21306;DHT22;10812;51.838;5.838;2022-09-14T11:52:30;16.10;99.90
21306;DHT22;10812;51.838;5.838;2022-09-14T11:55:01;16.20;99.90
21306;DHT22;10812;51.838;5.838;2022-09-14T11:57:31;16.20;99.90
21306;DHT22;10812;51.838;5.838;2022-09-14T12:00:00;16.30;99.90
21306;DHT22;10812;51.838;5.838;2022-09-14T12:02:59;16.40;99.90
21306;DHT22;10812;51.838;5.838;2022-09-14T12:05:31;16.20;99.90
21306;DHT22;10812;51.838;5.838;2022-09-14T12:11:29;16.00;99.90
21306;DHT22;10812;51.838;5.838;2022-09-14T12:14:30;16.30;99.90
21306;DHT22;10812;51.838;5.838;2022-09-14T12:17:15;16.30;99.90
21306;DHT22;10812;51.838;5.838;2022-09-14T12:27:48;16.80;99.90
21306;DHT22;10812;51.838;5.838;2022-09-14T12:31:04;16.80;99.90
21306;DHT22;10812;51.838;5.838;2022-09-14T12:33:41;16.60;99.90
21306;DHT22;10812;51.838;5.838;2022-09-14T12:36:11;16.50;99.90
21306;DHT22;10812;51.838;5.838;2022-09-14T12:39:09;16.50;99.90
21306;DHT22;10812;51.838;5.838;2022-09-14T12:42:00;16.50;99.90
21306;DHT22;10812;51.838;5.838;2022-09-14T12:44:32;16.50;99.90
21306;DHT22;10812;51.838;5.838;2022-09-14T12:50:11;16.50;99.90
21306;DHT22;10812;51.838;5.838;2022-09-14T12:52:49;16.60;99.90
21306;DHT22;10812;51.838;5.838;2022-09-14T12:55:30;16.80;99.90
21306;DHT22;10812;51.838;5.838;2022-09-14T12:58:06;16.90;99.90
21306;DHT22;10812;51.838;5.838;2022-09-14T13:00:53;16.80;99.90
21306;DHT22;10812;51.838;5.838;2022-09-14T13:03:45;16.80;99.90
21306;DHT22;10812;51.838;5.838;2022-09-14T13:06:14;16.70;99.90
21306;DHT22;10812;51.838;5.838;2022-09-14T13:08:45;16.70;99.90
21306;DHT22;10812;51.838;5.838;2022-09-14T13:11:22;16.80;99.90
21306;DHT22;10812;51.838;5.838;2022-09-14T13:13:51;16.70;99.90
21306;DHT22;10812;51.838;5.838;2022-09-14T13:16:37;16.90;99.90
21306;DHT22;10812;51.838;5.838;2022-09-14T13:19:19;16.80;99.90
21306;DHT22;10812;51.838;5.838;2022-09-14T13:21:48;16.60;99.90
21306;DHT22;10812;51.838;5.838;2022-09-14T13:24:29;16.60;99.90
21306;DHT22;10812;51.838;5.838;2022-09-14T13:26:59;16.50;99.90
21306;DHT22;10812;51.838;5.838;2022-09-14T13:29:28;16.50;99.90
21306;DHT22;10812;51.838;5.838;2022-09-14T13:31:59;16.50;99.90
21306;DHT22;10812;51.838;5.838;2022-09-14T13:34:33;16.50;99.90
21306;DHT22;10812;51.838;5.838;2022-09-14T13:37:01;16.60;99.90
21306;DHT22;10812;51.838;5.838;2022-09-14T13:39:32;16.70;99.90
21306;DHT22;10812;51.838;5.838;2022-09-14T13:42:02;16.90;99.90
21306;DHT22;10812;51.838;5.838;2022-09-14T13:44:32;16.90;99.90
21306;DHT22;10812;51.838;5.838;2022-09-14T13:47:03;17.00;99.90
21306;DHT22;10812;51.838;5.838;2022-09-14T13:49:33;17.30;99.90
21306;DHT22;10812;51.838;5.838;2022-09-14T13:52:22;17.50;99.90
21306;DHT22;10812;51.838;5.838;2022-09-14T13:55:21;17.30;99.90
21306;DHT22;10812;51.838;5.838;2022-09-14T13:58:11;17.30;99.90
21306;DHT22;10812;51.838;5.838;2022-09-14T14:00:54;17.30;99.90
21306;DHT22;10812;51.838;5.838;2022-09-14T14:03:30;17.30;99.90
21306;DHT22;10812;51.838;5.838;2022-09-14T14:06:02;17.50;99.90
21306;DHT22;10812;51.838;5.838;2022-09-14T14:08:34;17.70;99.90
21306;DHT22;10812;51.838;5.838;2022-09-14T14:11:04;17.70;99.90
21306;DHT22;10812;51.838;5.838;2022-09-14T14:13:34;17.60;99.90
21306;DHT22;10812;51.838;5.838;2022-09-14T14:16:16;17.60;99.90
21306;DHT22;10812;51.838;5.838;2022-09-14T14:18:53;17.40;99.90
21306;DHT22;10812;51.838;5.838;2022-09-14T14:21:27;17.40;99.90
21306;DHT22;10812;51.838;5.838;2022-09-14T14:24:23;17.50;99.90
21306;DHT22;10812;51.838;5.838;2022-09-14T14:26:54;17.50;99.90
21306;DHT22;10812;51.838;5.838;2022-09-14T14:29:24;17.40;99.90
21306;DHT22;10812;51.838;5.838;2022-09-14T14:31:53;17.50;99.90
21306;DHT22;10812;51.838;5.838;2022-09-14T14:34:25;17.60;99.90
21306;DHT22;10812;51.838;5.838;2022-09-14T14:36:54;17.60;99.90
21306;DHT22;10812;51.838;5.838;2022-09-14T14:39:24;17.60;99.90
21306;DHT22;10812;51.838;5.838;2022-09-14T14:41:52;17.80;99.90
21306;DHT22;10812;51.838;5.838;2022-09-14T14:44:23;17.90;99.90
21306;DHT22;10812;51.838;5.838;2022-09-14T14:46:54;18.20;99.90
21306;DHT22;10812;51.838;5.838;2022-09-14T14:49:23;18.10;99.90
21306;DHT22;10812;51.838;5.838;2022-09-14T14:51:52;17.90;99.90
21306;DHT22;10812;51.838;5.838;2022-09-14T14:54:20;17.70;99.90
21306;DHT22;10812;51.838;5.838;2022-09-14T14:56:49;17.70;99.90
21306;DHT22;10812;51.838;5.838;2022-09-14T14:59:26;17.70;99.90
21306;DHT22;10812;51.838;5.838;2022-09-14T15:01:55;17.80;99.90
21306;DHT22;10812;51.838;5.838;2022-09-14T15:04:25;17.90;99.90
21306;DHT22;10812;51.838;5.838;2022-09-14T15:06:54;18.00;99.90
21306;DHT22;10812;51.838;5.838;2022-09-14T15:09:23;18.10;99.90
21306;DHT22;10812;51.838;5.838;2022-09-14T15:11:53;18.10;99.90
21306;DHT22;10812;51.838;5.838;2022-09-14T15:14:22;17.90;99.90
21306;DHT22;10812;51.838;5.838;2022-09-14T15:16:53;17.90;99.90
21306;DHT22;10812;51.838;5.838;2022-09-14T15:19:27;17.80;99.90
21306;DHT22;10812;51.838;5.838;2022-09-14T15:21:55;17.60;99.90
21306;DHT22;10812;51.838;5.838;2022-09-14T15:24:28;17.70;99.90
21306;DHT22;10812;51.838;5.838;2022-09-14T15:26:56;17.90;99.90
21306;DHT22;10812;51.838;5.838;2022-09-14T15:29:25;17.80;99.90
21306;DHT22;10812;51.838;5.838;2022-09-14T15:31:53;17.80;99.90
21306;DHT22;10812;51.838;5.838;2022-09-14T15:34:21;18.00;99.90
21306;DHT22;10812;51.838;5.838;2022-09-14T15:36:52;18.10;99.90
21306;DHT22;10812;51.838;5.838;2022-09-14T15:39:22;17.80;99.90
21306;DHT22;10812;51.838;5.838;2022-09-14T15:41:50;17.90;99.90
21306;DHT22;10812;51.838;5.838;2022-09-14T15:44:19;17.80;99.90
21306;DHT22;10812;51.838;5.838;2022-09-14T15:46:47;17.80;99.90
21306;DHT22;10812;51.838;5.838;2022-09-14T15:49:17;18.00;99.90
21306;DHT22;10812;51.838;5.838;2022-09-14T15:51:48;18.10;99.90
21306;DHT22;10812;51.838;5.838;2022-09-14T15:54:19;18.20;99.90
21306;DHT22;10812;51.838;5.838;2022-09-14T15:56:50;18.30;99.90
21306;DHT22;10812;51.838;5.838;2022-09-14T15:59:19;18.30;99.90
21306;DHT22;10812;51.838;5.838;2022-09-14T16:01:48;18.20;99.90
21306;DHT22;10812;51.838;5.838;2022-09-14T16:04:16;17.90;99.90
21306;DHT22;10812;51.838;5.838;2022-09-14T16:06:44;18.10;99.90
21306;DHT22;10812;51.838;5.838;2022-09-14T16:09:14;18.00;99.90
21306;DHT22;10812;51.838;5.838;2022-09-14T16:11:44;17.90;99.90
21306;DHT22;10812;51.838;5.838;2022-09-14T16:14:12;17.90;99.90
21306;DHT22;10812;51.838;5.838;2022-09-14T16:16:40;17.80;99.90
21306;DHT22;10812;51.838;5.838;2022-09-14T16:19:11;18.00;99.90
21306;DHT22;10812;51.838;5.838;2022-09-14T16:21:40;18.00;99.90
21306;DHT22;10812;51.838;5.838;2022-09-14T16:24:11;18.00;99.90
21306;DHT22;10812;51.838;5.838;2022-09-14T16:26:39;17.90;99.90
21306;DHT22;10812;51.838;5.838;2022-09-14T16:29:10;17.80;99.90
21306;DHT22;10812;51.838;5.838;2022-09-14T16:31:40;17.60;99.90
21306;DHT22;10812;51.838;5.838;2022-09-14T16:34:12;17.60;99.90
21306;DHT22;10812;51.838;5.838;2022-09-14T16:36:41;17.60;99.90
21306;DHT22;10812;51.838;5.838;2022-09-14T16:39:12;17.40;99.90